Time;durP1;ratioP1;P1;durP2;ratioP2;P2;SDS_P1;SDS_P2;PMS_P1;PMS_P2;Temp;Humidity;BMP_temperature;BMP_pressure;BME280_temperature;BME280_humidity;BME280_pressure;Samples;Min_cycle;Max_cycle;Signal;HPM_P1;HPM_P2
2023/05/15 00:02:23;;;;;;;74.72;7.55;;;;;;;19.34;73.85;97378.13;4463402;32;20077;-80
2023/05/15 00:04:50;;;;;;;96.18;8.85;;;;;;;18.91;75.58;97365.41;4463433;32;20111;-80
2023/05/15 00:07:17;;;;;;;68.72;7.40;;;;;;;18.83;76.58;97356.59;4462499;32;20092;-80
2023/05/15 00:09:43;;;;;;;47.53;6.50;;;;;;;18.88;76.35;97357.03;4463617;32;20085;-80
2023/05/15 00:12:10;;;;;;;60.58;7.37;;;;;;;18.72;76.81;97360.16;4463592;32;20058;-80
2023/05/15 00:14:37;;;;;;;44.40;6.45;;;;;;;19.01;74.75;97341.91;4463796;32;20151;-80
2023/05/15 00:17:05;;;;;;;71.28;7.37;;;;;;;18.93;75.72;97329.53;4465756;32;20062;-80
2023/05/15 00:19:32;;;;;;;82.32;7.10;;;;;;;18.65;77.44;97335.50;4451385;32;20155;-80
2023/05/15 00:22:00;;;;;;;84.32;7.93;;;;;;;18.85;77.79;97320.69;4465680;32;20077;-80
2023/05/15 00:24:26;;;;;;;83.10;7.20;;;;;;;18.99;76.54;97323.75;4465769;32;20093;-80
2023/05/15 00:26:53;;;;;;;49.58;6.12;;;;;;;19.47;73.47;97328.19;4466328;32;20099;-80
2023/05/15 00:29:20;;;;;;;57.15;6.60;;;;;;;19.20;74.34;97317.56;4466066;32;20089;-80
2023/05/15 00:31:47;;;;;;;71.90;6.87;;;;;;;18.93;75.91;97299.94;4466924;32;20049;-80
2023/05/15 00:34:14;;;;;;;54.38;6.90;;;;;;;18.83;76.57;97302.53;4466657;32;20069;-80
2023/05/15 00:36:41;;;;;;;32.72;5.25;;;;;;;19.23;74.36;97312.88;4468809;32;20050;-80
2023/05/15 00:39:08;;;;;;;26.62;5.40;;;;;;;19.23;73.53;97312.88;4455133;32;20065;-81
2023/05/15 00:41:36;;;;;;;18.35;5.45;;;;;;;19.17;74.25;97308.22;4467645;32;20061;-80
2023/05/15 00:44:03;;;;;;;22.67;5.07;;;;;;;18.62;76.73;97296.56;4467771;32;20077;-81
2023/05/15 00:46:31;;;;;;;26.40;5.00;;;;;;;18.87;75.56;97306.53;4454440;32;20155;-81
2023/05/15 00:48:58;;;;;;;21.45;5.30;;;;;;;19.26;73.46;97324.88;4453976;32;20737;-80
2023/05/15 00:51:26;;;;;;;10.45;3.62;;;;;;;18.40;77.69;97331.53;4467917;32;20054;-80
2023/05/15 00:53:53;;;;;;;11.50;4.25;;;;;;;18.88;75.75;97336.94;4468120;32;20092;-80
2023/05/15 00:56:21;;;;;;;10.55;4.15;;;;;;;18.60;77.33;97341.06;4468776;32;20118;-80
2023/05/15 00:58:54;;;;;;;11.18;4.80;;;;;;;18.31;78.38;97351.44;4455346;32;20109;-80
2023/05/15 01:01:21;;;;;;;11.88;4.40;;;;;;;18.74;76.91;97347.78;4442288;32;20611;-80
2023/05/15 01:03:48;;;;;;;11.52;4.95;;;;;;;18.48;78.21;97345.56;4468077;32;20110;-80
2023/05/15 01:06:15;;;;;;;10.32;4.28;;;;;;;18.71;76.97;97338.38;4467892;32;20103;-80
2023/05/15 01:08:44;;;;;;;9.95;4.12;;;;;;;18.87;75.25;97321.38;4467114;32;20085;-80
2023/05/15 01:11:13;;;;;;;9.52;4.05;;;;;;;18.85;75.32;97318.91;4467448;32;20123;-80
2023/05/15 01:13:40;;;;;;;10.68;3.92;;;;;;;18.70;76.10;97330.69;4467475;32;20061;-80
2023/05/15 01:16:07;;;;;;;9.90;3.45;;;;;;;18.81;75.22;97317.50;4468154;32;20077;-80
2023/05/15 01:18:51;;;;;;;9.68;4.00;;;;;;;18.32;77.86;97319.13;4467664;32;20104;-80
2023/05/15 01:21:33;;;;;;;8.90;3.53;;;;;;;18.75;75.77;97310.22;4468120;32;20058;-81
2023/05/15 01:24:25;;;;;;;8.63;3.70;;;;;;;18.19;78.55;97315.94;4466993;32;20058;-80
2023/05/15 01:27:04;;;;;;;9.52;3.67;;;;;;;18.75;75.47;97318.06;4465035;32;20062;-80
2023/05/15 01:30:08;;;;;;;8.48;3.80;;;;;;;18.21;78.39;97335.72;4466495;32;20099;-80
2023/05/15 01:33:04;;;;;;;8.40;3.90;;;;;;;17.84;80.45;97343.19;4466946;32;20053;-80
2023/05/15 01:35:59;;;;;;;9.63;3.90;;;;;;;17.51;82.03;97346.78;4453072;32;20114;-80
2023/05/15 01:38:37;;;;;;;8.98;3.53;;;;;;;17.64;81.79;97351.81;4466137;32;20069;-80
2023/05/15 01:41:08;;;;;;;10.65;3.80;;;;;;;17.50;83.15;97352.12;4452244;32;20061;-80
2023/05/15 01:43:39;;;;;;;10.18;4.00;;;;;;;17.85;81.17;97344.84;4466824;32;20077;-80
2023/05/15 01:46:06;;;;;;;10.13;4.12;;;;;;;17.77;81.40;97355.09;4467028;32;20080;-80
2023/05/15 01:48:35;;;;;;;8.98;3.72;;;;;;;17.41;84.12;97343.25;4453015;32;20089;-80
2023/05/15 01:51:04;;;;;;;11.38;3.87;;;;;;;18.19;79.14;97339.41;4466847;32;20069;-80
2023/05/15 01:53:32;;;;;;;9.90;3.70;;;;;;;17.90;81.09;97327.03;4466712;32;20076;-80
2023/05/15 01:55:59;;;;;;;11.07;3.95;;;;;;;18.20;79.07;97313.19;4452453;32;20073;-80
2023/05/15 01:58:26;;;;;;;9.90;4.20;;;;;;;18.10;79.22;97314.91;4453309;32;20073;-80
2023/05/15 02:00:54;;;;;;;11.50;4.12;;;;;;;18.18;79.58;97298.56;4465880;32;20131;-80
2023/05/15 02:03:21;;;;;;;11.12;4.00;;;;;;;18.01;80.81;97300.03;4451870;32;20065;-81
2023/05/15 02:05:48;;;;;;;12.90;4.57;;;;;;;18.62;77.85;97301.78;4451308;32;20097;-80
2023/05/15 02:08:15;;;;;;;11.20;4.53;;;;;;;18.53;76.89;97300.78;4465263;32;20105;-80
2023/05/15 02:10:42;;;;;;;12.00;4.30;;;;;;;18.42;77.32;97311.34;4466193;32;20498;-80
2023/05/15 02:13:10;;;;;;;11.20;4.22;;;;;;;18.55;76.46;97316.31;4465395;32;20080;-79
2023/05/15 02:15:37;;;;;;;12.70;4.57;;;;;;;18.06;78.37;97318.72;4452712;32;20084;-80
2023/05/15 02:18:04;;;;;;;12.27;5.10;;;;;;;17.90;80.15;97303.53;4452342;32;20109;-80
2023/05/15 02:20:31;;;;;;;13.13;5.18;;;;;;;18.05;78.86;97303.19;4451406;32;20115;-79
2023/05/15 02:22:58;;;;;;;14.77;5.85;;;;;;;17.43;81.41;97304.84;4451654;32;20115;-80
2023/05/15 02:25:34;;;;;;;14.05;6.12;;;;;;;17.60;81.12;97304.28;4465098;32;20066;-80
2023/05/15 02:28:03;;;;;;;14.43;6.30;;;;;;;18.15;79.19;97299.66;4451552;32;20073;-80
2023/05/15 02:30:45;;;;;;;16.25;6.25;;;;;;;18.13;79.90;97304.19;4452309;32;20100;-80
2023/05/15 02:33:24;;;;;;;16.00;6.60;;;;;;;18.23;78.40;97306.84;4451509;32;20080;-80
2023/05/15 02:35:53;;;;;;;15.88;6.22;;;;;;;18.53;76.01;97306.00;4465334;32;20076;-80
2023/05/15 02:38:40;;;;;;;16.02;6.65;;;;;;;18.22;78.00;97300.00;4464054;32;20127;-80
2023/05/15 02:41:08;;;;;;;15.80;6.20;;;;;;;18.39;77.82;97301.13;4450769;32;20088;-80
2023/05/15 02:43:36;;;;;;;15.45;6.35;;;;;;;18.79;75.61;97298.53;4450707;32;20072;-80
2023/05/15 02:46:04;;;;;;;15.98;6.47;;;;;;;18.64;77.25;97303.31;4464354;32;20057;-80
2023/05/15 02:48:33;;;;;;;15.57;6.25;;;;;;;18.35;77.68;97295.34;4450429;32;20214;-80
2023/05/15 02:51:00;;;;;;;16.70;6.43;;;;;;;17.81;80.40;97287.81;4438254;32;20056;-81
2023/05/15 02:53:27;;;;;;;17.77;6.35;;;;;;;17.69;80.08;97286.22;4437690;32;20057;-81
2023/05/15 02:55:54;;;;;;;15.68;6.30;;;;;;;18.11;78.84;97279.19;4464698;32;20085;-80
2023/05/15 02:58:21;;;;;;;15.88;6.97;;;;;;;17.71;79.94;97279.94;4464420;32;20110;-80
2023/05/15 03:00:48;;;;;;;15.63;6.75;;;;;;;17.82;78.89;97292.09;4464896;32;20061;-80
2023/05/15 03:03:15;;;;;;;15.90;6.30;;;;;;;17.51;80.93;97284.19;4450648;32;20061;-80
2023/05/15 03:05:41;;;;;;;14.50;5.97;;;;;;;17.62;80.80;97272.84;4464947;32;20061;-80
2023/05/15 03:08:08;;;;;;;11.48;4.80;;;;;;;18.34;77.92;97272.81;4451279;32;20093;-81
2023/05/15 03:10:35;;;;;;;10.90;4.35;;;;;;;18.64;75.03;97271.13;4465713;32;20061;-80
2023/05/15 03:13:02;;;;;;;10.90;4.78;;;;;;;17.59;79.68;97263.50;4466750;32;20057;-81
2023/05/15 03:15:29;;;;;;;10.57;4.22;;;;;;;16.38;87.64;97248.19;4452271;32;20078;-80
2023/05/15 03:17:56;;;;;;;11.18;4.95;;;;;;;15.85;90.80;97251.41;4467061;32;20225;-80
2023/05/15 03:20:23;;;;;;;10.23;4.35;;;;;;;16.28;88.72;97253.31;4465939;32;20072;-80
2023/05/15 03:22:50;;;;;;;10.48;4.57;;;;;;;16.36;85.60;97256.09;4466529;32;20084;-80
2023/05/15 03:25:17;;;;;;;12.25;4.72;;;;;;;16.21;88.73;97257.31;4466589;32;20053;-80
2023/05/15 03:27:43;;;;;;;11.65;4.80;;;;;;;17.58;80.42;97259.25;4453191;32;20088;-80
2023/05/15 03:30:20;;;;;;;13.18;4.47;;;;;;;17.18;81.26;97269.53;4467043;32;20097;-80
2023/05/15 03:32:47;;;;;;;13.88;5.12;;;;;;;17.10;82.52;97278.91;4467136;32;20076;-80
2023/05/15 03:35:14;;;;;;;13.48;4.85;;;;;;;17.26;81.59;97279.34;4467159;32;20101;-80
2023/05/15 03:37:41;;;;;;;11.10;4.30;;;;;;;17.14;81.95;97269.91;4466081;32;20061;-80
2023/05/15 03:40:08;;;;;;;13.40;5.62;;;;;;;16.74;84.10;97270.53;4465911;32;20072;-80
2023/05/15 03:42:35;;;;;;;13.35;5.07;;;;;;;16.12;86.81;97279.69;4465300;32;20107;-80
2023/05/15 03:45:02;;;;;;;13.80;5.40;;;;;;;16.40;88.10;97275.75;4464990;32;20077;-80
2023/05/15 03:47:29;;;;;;;13.60;5.18;;;;;;;17.17;83.39;97270.47;4465773;32;20105;-80
2023/05/15 03:49:56;;;;;;;11.85;4.80;;;;;;;16.49;85.84;97279.44;4466036;32;20078;-80
2023/05/15 03:52:22;;;;;;;11.93;4.70;;;;;;;16.78;85.03;97282.34;4466936;32;20057;-80
2023/05/15 03:54:49;;;;;;;10.27;4.43;;;;;;;17.10;83.13;97282.34;4467767;32;20066;-79
2023/05/15 03:57:16;;;;;;;10.90;4.07;;;;;;;17.42;80.19;97290.16;4467084;32;20119;-80
2023/05/15 03:59:47;;;;;;;10.93;4.40;;;;;;;17.37;79.79;97289.72;4453938;32;20065;-79
2023/05/15 04:02:14;;;;;;;10.27;4.35;;;;;;;17.09;81.85;97292.91;4467394;32;20098;-80
2023/05/15 04:04:43;;;;;;;9.38;3.80;;;;;;;16.84;82.21;97292.28;4466745;32;20101;-80
2023/05/15 04:07:09;;;;;;;11.45;3.92;;;;;;;16.46;84.95;97290.88;4467777;32;20065;-80
2023/05/15 04:09:37;;;;;;;10.02;3.78;;;;;;;16.06;87.30;97289.75;4468141;32;20062;-80
2023/05/15 04:12:05;;;;;;;7.60;3.15;;;;;;;16.23;86.83;97289.25;4467888;32;20087;-80
2023/05/15 04:14:31;;;;;;;8.30;3.40;;;;;;;16.13;88.19;97296.13;4468269;32;20057;-80
2023/05/15 04:16:58;;;;;;;8.18;3.12;;;;;;;16.54;85.58;97300.72;4468600;32;20062;-80
2023/05/15 04:19:29;;;;;;;8.77;3.20;;;;;;;16.86;83.46;97297.38;4467342;32;20073;-80
2023/05/15 04:21:56;;;;;;;9.50;3.60;;;;;;;17.28;82.52;97290.47;4468980;32;20073;-80
2023/05/15 04:24:23;;;;;;;8.48;2.90;;;;;;;17.10;82.06;97303.19;4468891;32;20057;-80
2023/05/15 04:26:50;;;;;;;7.18;2.85;;;;;;;17.32;81.41;97300.50;4469247;32;20070;-80
2023/05/15 04:29:17;;;;;;;7.18;2.80;;;;;;;17.20;82.01;97308.50;4468762;32;20061;-80
2023/05/15 04:31:43;;;;;;;7.47;2.85;;;;;;;17.61;78.93;97310.31;4468571;32;20102;-80
2023/05/15 04:34:10;;;;;;;8.73;2.85;;;;;;;17.13;81.12;97315.19;4468265;32;20067;-80
2023/05/15 04:36:37;;;;;;;6.55;2.90;;;;;;;17.45;80.12;97309.94;4469791;32;20081;-80
2023/05/15 04:39:07;;;;;;;7.15;2.83;;;;;;;17.71;78.77;97306.03;4470287;32;20072;-80
2023/05/15 04:41:34;;;;;;;7.15;2.80;;;;;;;17.66;78.75;97312.56;4470630;32;20053;-79
2023/05/15 04:44:00;;;;;;;6.57;2.72;;;;;;;17.91;77.96;97307.81;4470690;32;20104;-80
2023/05/15 04:46:28;;;;;;;8.52;3.08;;;;;;;17.84;79.47;97321.47;4469486;32;20066;-80
2023/05/15 04:48:55;;;;;;;6.95;2.67;;;;;;;17.78;79.00;97325.44;4457328;32;20080;-80
2023/05/15 04:51:22;;;;;;;6.93;2.70;;;;;;;18.16;76.58;97319.59;4470666;32;20057;-80
2023/05/15 04:53:49;;;;;;;6.60;2.47;;;;;;;18.33;74.36;97317.34;4470594;32;20080;-80
2023/05/15 04:56:15;;;;;;;6.25;2.17;;;;;;;18.09;75.52;97328.09;4471173;32;20062;-80
2023/05/15 04:58:42;;;;;;;4.68;2.20;;;;;;;18.25;73.52;97327.63;4470941;32;20057;-81
2023/05/15 05:01:09;;;;;;;4.85;2.10;;;;;;;18.28;73.56;97325.56;4469596;32;20057;-80
2023/05/15 05:03:36;;;;;;;7.00;2.28;;;;;;;18.42;73.59;97332.22;4471148;32;20115;-80
2023/05/15 05:06:03;;;;;;;8.15;2.42;;;;;;;18.48;71.84;97327.28;4470752;32;20053;-80
2023/05/15 05:08:32;;;;;;;6.22;2.40;;;;;;;18.42;72.35;97338.28;4470367;32;20111;-80
2023/05/15 05:10:59;;;;;;;8.27;2.83;;;;;;;18.53;72.22;97333.91;4470531;32;20061;-80
2023/05/15 05:13:26;;;;;;;7.47;2.62;;;;;;;18.70;72.79;97330.69;4469723;32;20076;-80
2023/05/15 05:15:53;;;;;;;6.40;2.62;;;;;;;18.20;74.09;97336.69;4470028;32;20066;-80
2023/05/15 05:18:20;;;;;;;6.93;2.67;;;;;;;18.23;73.87;97339.97;4470229;32;20061;-80
2023/05/15 05:20:47;;;;;;;6.35;2.45;;;;;;;18.24;72.91;97333.78;4470416;32;20057;-80
2023/05/15 05:23:14;;;;;;;6.97;2.75;;;;;;;17.72;75.75;97331.16;4469717;32;20058;-80
2023/05/15 05:25:41;;;;;;;7.40;2.87;;;;;;;17.59;76.56;97331.31;4469320;32;20076;-80
2023/05/15 05:28:08;;;;;;;5.28;2.42;;;;;;;17.16;79.16;97333.16;4468929;32;20108;-80
2023/05/15 05:30:34;;;;;;;7.07;2.60;;;;;;;17.78;77.46;97328.06;4468655;32;20104;-80
2023/05/15 05:33:01;;;;;;;8.85;2.90;;;;;;;18.13;75.38;97329.47;4470063;32;20072;-80
2023/05/15 05:35:28;;;;;;;6.70;2.45;;;;;;;17.93;75.17;97326.75;4469183;32;20154;-80
2023/05/15 05:37:55;;;;;;;7.03;3.05;;;;;;;18.38;73.38;97331.66;4468544;32;20062;-80
2023/05/15 05:40:22;;;;;;;7.60;2.80;;;;;;;18.06;74.63;97336.16;4468827;32;20061;-80
2023/05/15 05:42:49;;;;;;;6.97;2.42;;;;;;;18.93;71.20;97337.38;4468951;32;20057;-80
2023/05/15 05:45:16;;;;;;;6.62;2.78;;;;;;;18.84;71.11;97345.19;4468572;32;20072;-80
2023/05/15 05:47:43;;;;;;;7.80;3.22;;;;;;;19.59;68.91;97348.03;4469964;32;20065;-80
2023/05/15 05:50:10;;;;;;;5.87;2.67;;;;;;;19.51;69.91;97341.81;4469909;32;20108;-80
2023/05/15 05:52:37;;;;;;;5.10;2.00;;;;;;;19.78;68.93;97346.34;4467123;32;20097;-80
2023/05/15 05:55:04;;;;;;;6.97;2.53;;;;;;;19.60;67.78;97341.84;4457406;32;20081;-80
2023/05/15 05:57:31;;;;;;;5.45;2.35;;;;;;;19.68;66.72;97340.34;4455929;32;20093;-80
2023/05/15 06:00:01;;;;;;;6.55;2.55;;;;;;;19.40;67.98;97334.94;4459064;32;20057;-82
2023/05/15 06:02:27;;;;;;;6.07;2.45;;;;;;;18.91;68.69;97326.19;4450418;32;20120;-82
2023/05/15 06:04:55;;;;;;;5.75;2.33;;;;;;;18.88;69.73;97333.50;4462067;32;20081;-82
2023/05/15 06:07:22;;;;;;;5.75;2.60;;;;;;;20.47;64.04;97335.59;4463613;32;20092;-81
2023/05/15 06:09:49;;;;;;;7.05;2.92;;;;;;;19.86;66.36;97343.88;4460810;32;20103;-80
2023/05/15 06:12:16;;;;;;;5.80;2.50;;;;;;;20.34;64.03;97354.22;4455797;32;20093;-80
2023/05/15 06:14:42;;;;;;;7.32;3.90;;;;;;;20.90;61.89;97342.00;4456601;32;20097;-81
2023/05/15 06:17:09;;;;;;;5.47;2.28;;;;;;;20.94;61.80;97346.78;4460219;32;20098;-81
2023/05/15 06:19:36;;;;;;;6.85;2.45;;;;;;;20.37;62.23;97347.87;4460005;32;20065;-81
2023/05/15 06:22:03;;;;;;;7.45;2.67;;;;;;;20.90;61.04;97353.31;4459975;32;20080;-81
2023/05/15 06:24:30;;;;;;;6.00;2.62;;;;;;;20.68;60.79;97358.94;4460329;32;20080;-82
2023/05/15 06:26:57;;;;;;;6.07;2.65;;;;;;;20.63;62.28;97358.53;4460509;32;20090;-81
2023/05/15 06:29:25;;;;;;;10.38;2.85;;;;;;;19.60;66.87;97354.09;4446054;32;20085;-86
2023/05/15 06:31:52;;;;;;;5.62;2.33;;;;;;;20.80;61.71;97353.38;4465871;32;20066;-82
2023/05/15 06:34:19;;;;;;;5.32;2.30;;;;;;;20.87;61.65;97344.94;4455480;32;20069;-81
2023/05/15 06:36:46;;;;;;;4.80;2.10;;;;;;;21.07;59.79;97364.81;4469077;32;20096;-82
2023/05/15 06:39:14;;;;;;;4.55;2.15;;;;;;;20.74;59.75;97363.63;4463530;32;20079;-81
2023/05/15 06:41:41;;;;;;;4.78;2.37;;;;;;;20.57;61.18;97359.97;4457277;32;20097;-80
2023/05/15 06:44:08;;;;;;;6.00;2.17;;;;;;;20.60;61.06;97367.53;4457738;32;20097;-83
2023/05/15 06:46:34;;;;;;;4.65;2.00;;;;;;;20.75;60.21;97368.72;4459708;32;20099;-85
2023/05/15 06:49:01;;;;;;;6.82;3.15;;;;;;;20.55;61.28;97372.41;4455315;32;163168;-85
2023/05/15 06:51:28;;;;;;;5.18;2.00;;;;;;;20.49;61.75;97370.34;4461072;32;20111;-85
2023/05/15 06:53:55;;;;;;;5.45;1.90;;;;;;;20.28;63.52;97362.66;4460039;32;20049;-85
2023/05/15 06:56:22;;;;;;;4.40;1.90;;;;;;;21.42;59.46;97368.47;4457393;32;20424;-84
2023/05/15 06:58:50;;;;;;;5.65;2.30;;;;;;;21.46;57.80;97357.50;4457665;32;20057;-85
2023/05/15 07:01:16;;;;;;;6.70;2.10;;;;;;;21.42;58.02;97360.59;4459730;32;20111;-86
2023/05/15 07:03:43;;;;;;;7.40;2.30;;;;;;;21.82;57.71;97353.06;4457999;32;20464;-85
2023/05/15 07:06:10;;;;;;;4.85;2.08;;;;;;;22.40;54.47;97364.81;4457684;32;20099;-85
2023/05/15 07:08:40;;;;;;;4.22;1.80;;;;;;;22.39;55.24;97365.78;4462234;32;20084;-86
2023/05/15 07:11:07;;;;;;;7.25;1.83;;;;;;;22.88;54.00;97371.31;4455744;32;20073;-86
2023/05/15 07:13:34;;;;;;;3.58;1.77;;;;;;;21.98;54.87;97378.63;4467995;32;20111;-84
2023/05/15 07:16:02;;;;;;;5.53;2.20;;;;;;;21.57;57.97;97383.53;4463466;32;20081;-87
2023/05/15 07:18:30;;;;;;;6.68;2.40;;;;;;;20.62;62.54;97386.56;4461660;32;20061;-86
2023/05/15 07:20:57;;;;;;;6.35;2.35;;;;;;;20.19;62.88;97379.22;4514193;26;20107;-87
2023/05/15 07:23:25;;;;;;;5.35;2.25;;;;;;;20.29;64.09;97372.16;4466981;32;20077;-86
2023/05/15 07:25:55;;;;;;;4.90;2.12;;;;;;;20.61;65.25;97363.94;4483752;32;20061;-86
2023/05/15 07:28:22;;;;;;;5.45;2.20;;;;;;;20.50;62.53;97364.13;4471649;32;20199;-87
2023/05/15 07:30:49;;;;;;;6.05;2.37;;;;;;;21.08;62.07;97364.66;4463745;32;20098;-86
2023/05/15 07:33:16;;;;;;;5.50;2.08;;;;;;;21.61;59.09;97363.06;4465265;32;20158;-87
2023/05/15 07:35:43;;;;;;;4.75;2.17;;;;;;;21.72;57.49;97369.91;4449717;32;20116;-87
2023/05/15 07:38:10;;;;;;;6.40;2.30;;;;;;;21.27;59.41;97365.56;4466194;32;20085;-87
2023/05/15 07:40:37;;;;;;;5.70;2.47;;;;;;;21.51;58.09;97372.84;4459465;32;20089;-86
2023/05/15 07:43:04;;;;;;;5.35;2.25;;;;;;;21.58;57.62;97379.94;4459851;32;20466;-86
2023/05/15 07:45:31;;;;;;;4.93;2.10;;;;;;;21.36;59.86;97375.97;4461487;32;20435;-85
2023/05/15 07:48:12;;;;;;;4.78;1.90;;;;;;;20.98;60.70;97370.94;4463793;32;20060;-85
2023/05/15 07:50:40;;;;;;;4.00;1.95;;;;;;;20.96;60.41;97375.50;4463263;32;20085;-87
2023/05/15 07:53:06;;;;;;;7.22;2.40;;;;;;;20.78;61.45;97384.16;4463909;32;20162;-84
2023/05/15 07:55:33;;;;;;;5.90;2.58;;;;;;;20.31;63.36;97399.06;4460726;32;20084;-86
2023/05/15 07:58:00;;;;;;;4.97;2.22;;;;;;;19.94;65.10;97406.84;4463046;32;20126;-86
2023/05/15 08:00:27;;;;;;;3.95;1.98;;;;;;;20.04;64.58;97397.19;4457548;32;20112;-87
2023/05/15 08:02:55;;;;;;;6.78;2.33;;;;;;;19.73;65.21;97396.50;4457464;32;20116;-85
2023/05/15 08:05:22;;;;;;;4.82;1.95;;;;;;;19.68;66.49;97406.59;4457306;32;20188;-86
2023/05/15 08:07:49;;;;;;;4.55;2.10;;;;;;;19.83;66.50;97415.66;4457230;32;20105;-86
2023/05/15 08:10:16;;;;;;;3.85;1.85;;;;;;;20.17;66.17;97413.41;4443984;32;20142;-86
2023/05/15 08:12:45;;;;;;;5.12;2.95;;;;;;;20.42;62.14;97416.41;4457313;32;20105;-85
2023/05/15 08:15:12;;;;;;;4.72;2.20;;;;;;;19.88;65.03;97416.09;4457265;32;20507;-84
2023/05/15 08:17:40;;;;;;;8.10;2.87;;;;;;;20.21;64.80;97406.94;4458191;32;20158;-85
2023/05/15 08:20:07;;;;;;;5.68;2.42;;;;;;;19.63;67.39;97404.38;4457465;32;20115;-85
2023/05/15 08:22:34;;;;;;;4.68;2.05;;;;;;;19.16;68.01;97400.72;4459133;32;20552;-85
2023/05/15 08:25:05;;;;;;;5.65;2.28;;;;;;;18.59;72.99;97401.31;4443438;32;20132;-85
2023/05/15 08:27:32;;;;;;;6.93;2.30;;;;;;;18.94;72.01;97393.91;4443241;32;20102;-85
2023/05/15 08:29:59;;;;;;;4.37;2.00;;;;;;;19.29;70.63;97380.34;4456946;32;20108;-84
2023/05/15 08:32:26;;;;;;;5.87;1.92;;;;;;;20.04;65.94;97391.94;4456706;32;20089;-85
2023/05/15 08:34:56;;;;;;;5.47;2.30;;;;;;;20.47;65.04;97394.06;4457425;32;20556;-84
2023/05/15 08:37:23;;;;;;;6.55;2.40;;;;;;;20.27;62.79;97395.06;4462818;32;20061;-84
2023/05/15 08:39:50;;;;;;;5.00;2.10;;;;;;;20.77;62.29;97406.09;4461005;32;20066;-85
2023/05/15 08:42:20;;;;;;;5.82;2.15;;;;;;;20.27;64.07;97396.84;4462459;32;20109;-85
2023/05/15 08:44:47;;;;;;;7.68;2.30;;;;;;;20.91;62.63;97396.09;4447749;32;20075;-86
2023/05/15 08:47:14;;;;;;;4.18;1.98;;;;;;;21.12;61.93;97401.91;4449024;32;20430;-85
2023/05/15 08:50:00;;;;;;;6.07;2.20;;;;;;;21.40;60.94;97394.87;4461324;32;20474;-85
2023/05/15 08:52:27;;;;;;;5.90;2.00;;;;;;;21.74;59.04;97392.38;4461140;32;20109;-86
2023/05/15 08:54:55;;;;;;;4.07;2.00;;;;;;;21.88;58.73;97396.28;4444328;32;20115;-85
2023/05/15 08:57:22;;;;;;;3.65;1.80;;;;;;;22.50;57.74;97408.41;4444919;32;20146;-85
2023/05/15 08:59:50;;;;;;;6.20;2.40;;;;;;;22.29;54.43;97409.75;4450772;32;20085;-86
2023/05/15 09:02:18;;;;;;;5.28;2.20;;;;;;;22.40;57.44;97412.94;4466124;32;20057;-85
2023/05/15 09:04:45;;;;;;;5.03;2.45;;;;;;;22.34;58.89;97413.56;4463239;32;20491;-85
2023/05/15 09:07:14;;;;;;;5.93;2.40;;;;;;;21.64;58.46;97410.84;4461523;32;20229;-86
2023/05/15 09:09:44;;;;;;;9.93;2.85;;;;;;;21.74;58.28;97412.56;4463008;32;20077;-85
2023/05/15 09:12:14;;;;;;;6.50;2.80;;;;;;;21.53;59.37;97426.81;4460886;32;20101;-85
2023/05/15 09:14:44;;;;;;;6.60;2.33;;;;;;;22.07;57.72;97421.56;4443969;32;20085;-85
2023/05/15 09:17:11;;;;;;;5.35;2.33;;;;;;;21.53;58.94;97415.50;4446954;32;20089;-85
2023/05/15 09:19:41;;;;;;;4.37;2.00;;;;;;;21.14;60.40;97428.81;4457046;32;20135;-85
2023/05/15 09:22:23;;;;;;;3.00;1.55;;;;;;;21.46;59.91;97417.87;4456672;32;20672;-85
2023/05/15 09:24:51;;;;;;;3.70;1.67;;;;;;;20.16;60.76;97419.63;4446177;32;20147;-84
2023/05/15 09:27:19;;;;;;;2.97;1.73;;;;;;;20.88;58.25;97426.06;4462772;32;20069;-85
2023/05/15 09:29:46;;;;;;;3.12;1.40;;;;;;;20.28;60.49;97425.53;4464373;32;20093;-85
2023/05/15 09:32:13;;;;;;;3.87;1.90;;;;;;;20.50;59.47;97427.00;4458407;32;20097;-85
2023/05/15 09:34:42;;;;;;;5.72;1.85;;;;;;;20.94;57.96;97424.63;4459062;32;20104;-86
2023/05/15 09:37:12;;;;;;;4.12;2.08;;;;;;;21.46;55.80;97417.87;4457299;32;20077;-86
2023/05/15 09:39:43;;;;;;;5.55;2.12;;;;;;;22.14;55.01;97420.81;4461973;32;20502;-86
2023/05/15 09:42:14;;;;;;;5.40;2.00;;;;;;;22.88;54.01;97424.75;4458393;32;20372;-86
2023/05/15 09:44:42;;;;;;;3.80;1.70;;;;;;;22.34;55.65;97428.50;4464290;32;20155;-86
2023/05/15 09:47:10;;;;;;;4.43;2.15;;;;;;;21.73;58.33;97429.31;4456441;32;20142;-85
2023/05/15 09:49:37;;;;;;;5.55;2.30;;;;;;;21.06;59.32;97442.69;4441773;32;20119;-85
2023/05/15 09:52:08;;;;;;;4.93;2.22;;;;;;;20.56;61.60;97426.47;4456835;32;20101;-84
2023/05/15 09:54:36;;;;;;;4.93;2.22;;;;;;;19.93;63.33;97432.19;4456300;32;20142;-85
2023/05/15 09:57:08;;;;;;;4.68;2.20;;;;;;;20.08;63.14;97437.00;4456877;32;20085;-82
2023/05/15 09:59:35;;;;;;;7.55;2.47;;;;;;;20.31;62.19;97429.66;4456907;32;20073;-83
2023/05/15 10:02:02;;;;;;;4.97;2.30;;;;;;;20.62;62.32;97441.59;4456193;32;20185;-83
2023/05/15 10:04:34;;;;;;;4.97;2.28;;;;;;;21.04;60.30;97428.88;4459505;32;20100;-83
2023/05/15 10:07:01;;;;;;;5.10;2.10;;;;;;;21.07;57.78;97435.62;4458630;32;20132;-84
2023/05/15 10:09:31;;;;;;;5.78;2.20;;;;;;;21.74;56.08;97439.66;4445036;32;20105;-83
2023/05/15 10:11:58;;;;;;;7.12;2.03;;;;;;;22.43;54.21;97444.16;4456404;32;20698;-84
2023/05/15 10:14:27;;;;;;;6.68;2.45;;;;;;;22.65;52.02;97442.84;4456708;32;20178;-83
2023/05/15 10:16:55;;;;;;;5.78;2.10;;;;;;;22.13;54.51;97436.75;4441745;32;20151;-83
2023/05/15 10:19:22;;;;;;;7.53;2.10;;;;;;;22.18;54.14;97444.97;4455988;32;20117;-82
2023/05/15 10:21:50;;;;;;;3.87;2.08;;;;;;;20.60;57.88;97440.09;4456146;32;20158;-83
2023/05/15 10:24:19;;;;;;;4.65;2.05;;;;;;;21.67;58.62;97435.97;4441905;32;20089;-82
2023/05/15 10:26:46;;;;;;;4.25;2.10;;;;;;;22.23;55.56;97435.66;4455945;32;20111;-81
2023/05/15 10:29:15;;;;;;;5.53;2.30;;;;;;;23.26;51.54;97439.19;4429186;32;20481;-81
2023/05/15 10:31:42;;;;;;;3.17;1.80;;;;;;;23.51;51.51;97439.25;4455578;32;20419;-81
2023/05/15 10:34:09;;;;;;;4.05;2.10;;;;;;;24.04;49.18;97448.59;4455848;32;20109;-82
2023/05/15 10:36:37;;;;;;;6.55;2.20;;;;;;;23.18;50.94;97448.84;4455804;32;20107;-82
2023/05/15 10:39:06;;;;;;;3.83;1.85;;;;;;;23.44;50.88;97446.97;4455195;32;20101;-82
2023/05/15 10:41:36;;;;;;;4.45;1.95;;;;;;;23.66;49.56;97445.56;4455859;32;20106;-82
2023/05/15 10:44:03;;;;;;;6.30;2.00;;;;;;;22.34;54.36;97453.00;4455858;32;20443;-83
2023/05/15 10:46:32;;;;;;;4.68;2.37;;;;;;;21.84;55.77;97450.91;4441575;32;20545;-82
2023/05/15 10:49:00;;;;;;;3.37;1.92;;;;;;;21.16;59.77;97449.66;4441488;32;20104;-82
2023/05/15 10:51:29;;;;;;;4.55;2.17;;;;;;;22.08;57.59;97454.75;4455910;32;20115;-82
2023/05/15 10:53:56;;;;;;;3.97;1.73;;;;;;;21.57;58.35;97440.47;4455417;32;20085;-82
2023/05/15 10:56:29;;;;;;;4.60;1.83;;;;;;;21.77;57.39;97430.66;4455591;32;20142;-81
2023/05/15 10:58:56;;;;;;;5.93;1.90;;;;;;;22.10;56.66;97434.41;4454359;32;20128;-81
2023/05/15 11:01:25;;;;;;;3.10;1.70;;;;;;;23.08;52.08;97441.09;4455852;32;20088;-82
2023/05/15 11:04:09;;;;;;;3.05;1.50;;;;;;;22.61;52.63;97435.41;4455513;32;20103;-82
2023/05/15 11:06:39;;;;;;;3.10;1.67;;;;;;;23.49;49.99;97426.22;4455650;32;20081;-82
2023/05/15 11:09:21;;;;;;;2.87;1.67;;;;;;;22.65;52.81;97427.06;4455806;32;20121;-81
2023/05/15 11:11:51;;;;;;;3.97;1.50;;;;;;;22.66;53.99;97427.88;4455566;32;20155;-82
2023/05/15 11:14:18;;;;;;;4.30;1.70;;;;;;;23.40;50.02;97429.88;4454975;32;20458;-83
2023/05/15 11:16:51;;;;;;;3.35;1.60;;;;;;;24.29;45.64;97423.84;4456539;32;20093;-83
2023/05/15 11:19:30;;;;;;;3.10;1.70;;;;;;;24.47;45.18;97418.44;4457848;32;20160;-82
2023/05/15 11:21:57;;;;;;;3.33;1.42;;;;;;;24.76;44.02;97421.28;4455032;32;20521;-82
2023/05/15 11:24:31;;;;;;;2.05;1.30;;;;;;;24.87;43.87;97429.84;4441401;32;20458;-82
2023/05/15 11:27:03;;;;;;;2.50;1.52;;;;;;;25.00;43.70;97428.31;4455087;32;20081;-82
2023/05/15 11:29:34;;;;;;;2.75;1.50;;;;;;;24.87;43.63;97420.09;4456070;32;20080;-82
2023/05/15 11:32:00;;;;;;;4.20;1.45;;;;;;;25.42;44.05;97421.88;4455890;32;20093;-82
2023/05/15 11:34:34;;;;;;;3.75;1.50;;;;;;;25.68;42.96;97418.91;4466252;32;20076;-81
2023/05/15 11:37:01;;;;;;;3.25;1.65;;;;;;;25.77;41.97;97412.59;4455455;32;20139;-82
2023/05/15 11:39:28;;;;;;;3.78;1.50;;;;;;;25.77;42.59;97415.22;4455559;32;20171;-81